createdAt,value
2019-01-21T00:00:45.062Z,0.00
2019-01-21T00:01:44.984Z,0.00
2019-01-21T00:02:45.252Z,0.00
2019-01-21T00:03:45.829Z,0.00
2019-01-21T00:04:45.825Z,0.00
2019-01-21T00:05:46.328Z,0.00
2019-01-21T00:06:46.330Z,0.00
2019-01-21T00:07:46.332Z,0.00
2019-01-21T00:08:46.859Z,0.00
2019-01-21T00:09:46.724Z,0.00
2019-01-21T00:10:47.081Z,0.00
2019-01-21T00:11:47.617Z,0.00
2019-01-21T00:12:47.377Z,0.00
2019-01-21T00:13:47.933Z,0.00
2019-01-21T00:14:48.051Z,0.00
2019-01-21T00:15:47.982Z,0.00
2019-01-21T00:16:48.269Z,0.00
2019-01-21T00:17:49.079Z,0.00
2019-01-21T00:18:49.203Z,0.00
2019-01-21T00:19:49.205Z,0.00
2019-01-21T00:20:49.981Z,0.00
2019-01-21T00:21:49.784Z,0.00
2019-01-21T00:22:50.162Z,0.00
2019-01-21T00:23:50.872Z,0.00
2019-01-21T00:24:50.980Z,0.00
2019-01-21T00:25:51.042Z,0.00
2019-01-21T00:26:50.828Z,0.00
2019-01-21T00:27:50.855Z,0.00
2019-01-21T00:28:51.159Z,0.00
2019-01-21T00:29:51.456Z,0.00
2019-01-21T00:30:51.791Z,0.00
2019-01-21T00:31:52.557Z,0.00
2019-01-21T00:32:52.507Z,0.00
2019-01-21T00:33:53.112Z,0.00
2019-01-21T00:34:52.873Z,0.00
2019-01-21T00:35:53.268Z,0.00
2019-01-21T00:36:53.686Z,0.00
2019-01-21T00:37:54.198Z,0.00
2019-01-21T00:38:54.191Z,0.00
2019-01-21T00:39:54.109Z,0.00
2019-01-21T00:40:54.121Z,0.00
2019-01-21T00:41:54.884Z,0.00
2019-01-21T00:42:55.081Z,0.00
2019-01-21T00:43:54.996Z,0.00
2019-01-21T00:44:56.032Z,0.00
2019-01-21T00:45:56.351Z,0.00
2019-01-21T00:46:56.893Z,0.00
2019-01-21T00:47:56.357Z,0.00
2019-01-21T00:48:58.271Z,0.00
2019-01-21T00:49:57.399Z,0.00
2019-01-21T00:50:57.921Z,0.00
2019-01-21T00:52:58.032Z,0.00
2019-01-21T00:53:58.040Z,0.00
2019-01-21T00:54:57.903Z,0.00
2019-01-21T00:55:58.159Z,0.00
2019-01-21T00:56:58.362Z,0.00
2019-01-21T00:57:58.778Z,0.00
2019-01-21T00:58:58.785Z,0.00
2019-01-21T00:59:59.290Z,0.00
2019-01-21T01:00:59.622Z,0.00
2019-01-21T01:01:59.797Z,0.00
2019-01-21T01:03:00.153Z,0.00
2019-01-21T01:04:00.649Z,0.00
2019-01-21T01:05:01.148Z,0.00
2019-01-21T01:06:01.392Z,0.00
2019-01-21T01:07:01.503Z,0.00
2019-01-21T01:08:01.924Z,0.00
2019-01-21T01:09:01.921Z,0.00
2019-01-21T01:10:01.827Z,0.00
2019-01-21T01:11:01.910Z,0.00
2019-01-21T01:12:02.554Z,0.00
2019-01-21T01:13:02.631Z,0.00
2019-01-21T01:14:03.078Z,0.00
2019-01-21T01:15:03.008Z,0.00
2019-01-21T01:16:03.396Z,0.00
2019-01-21T01:17:03.713Z,0.00
2019-01-21T01:18:03.564Z,0.00
2019-01-21T01:19:04.440Z,0.00
2019-01-21T01:20:04.689Z,0.00
2019-01-21T01:21:04.718Z,0.00
2019-01-21T01:22:05.134Z,0.00
2019-01-21T01:23:05.505Z,0.00
2019-01-21T01:24:05.934Z,0.00
2019-01-21T01:25:06.303Z,0.00
2019-01-21T01:26:06.728Z,0.00
2019-01-21T01:27:07.124Z,0.00
2019-01-21T01:28:07.585Z,0.00
2019-01-21T01:29:07.849Z,0.00
2019-01-21T01:30:08.122Z,0.00
2019-01-21T01:31:08.502Z,0.00
2019-01-21T01:32:08.390Z,0.00
2019-01-21T01:33:09.012Z,0.00
2019-01-21T01:34:08.885Z,0.00
2019-01-21T01:35:09.135Z,0.00
2019-01-21T01:36:09.348Z,0.00
2019-01-21T01:37:09.787Z,0.00
2019-01-21T01:38:10.525Z,0.00
2019-01-21T01:39:11.127Z,0.00
2019-01-21T01:40:11.748Z,0.00
2019-01-21T01:41:11.961Z,0.00
2019-01-21T01:42:12.425Z,0.00
2019-01-21T01:43:13.376Z,0.00
2019-01-21T01:44:12.912Z,0.00
2019-01-21T01:45:13.313Z,0.00
2019-01-21T01:46:13.224Z,0.00
2019-01-21T01:47:13.538Z,0.00
2019-01-21T01:48:13.753Z,0.00
2019-01-21T01:49:14.169Z,0.00
2019-01-21T01:50:15.102Z,0.00
2019-01-21T01:51:14.448Z,0.00
2019-01-21T01:52:14.794Z,0.00
2019-01-21T01:53:14.988Z,0.00
2019-01-21T01:54:15.230Z,0.00
2019-01-21T01:55:15.943Z,0.00
2019-01-21T01:56:15.920Z,0.00
2019-01-21T01:57:16.077Z,0.00
2019-01-21T01:58:16.184Z,0.00
2019-01-21T01:59:16.093Z,0.00
2019-01-21T02:00:17.202Z,0.00
2019-01-21T02:01:16.565Z,0.00
2019-01-21T02:02:17.103Z,0.00
2019-01-21T02:03:17.107Z,0.00
2019-01-21T02:04:17.567Z,0.00
2019-01-21T02:05:17.967Z,0.00
2019-01-21T02:06:18.232Z,0.00
2019-01-21T02:07:18.649Z,0.00
2019-01-21T02:08:19.073Z,0.00
2019-01-21T02:09:19.437Z,0.00
2019-01-21T02:10:19.775Z,0.00
2019-01-21T02:11:20.129Z,0.00
2019-01-21T02:12:20.652Z,0.00
2019-01-21T02:13:20.528Z,0.00
2019-01-21T02:14:20.832Z,0.00
2019-01-21T02:15:21.138Z,0.00
2019-01-21T02:16:21.487Z,0.00
2019-01-21T02:17:21.865Z,0.00
2019-01-21T02:18:22.150Z,0.00
2019-01-21T02:19:22.737Z,0.00
2019-01-21T02:20:22.704Z,0.00
2019-01-21T02:21:23.032Z,0.00
2019-01-21T02:22:23.640Z,0.00
2019-01-21T02:23:24.113Z,0.00
2019-01-21T02:24:24.045Z,0.00
2019-01-21T02:25:24.265Z,0.00
2019-01-21T02:26:24.549Z,0.00
2019-01-21T02:27:25.160Z,0.00
2019-01-21T02:28:24.765Z,0.00
2019-01-21T02:29:24.915Z,0.00
2019-01-21T02:30:26.103Z,0.00
2019-01-21T02:31:26.415Z,0.00
2019-01-21T02:32:26.528Z,0.00
2019-01-21T02:33:26.838Z,0.00
2019-01-21T02:34:27.059Z,0.00
2019-01-21T02:35:27.362Z,0.00
2019-01-21T02:36:27.754Z,0.00
2019-01-21T02:37:27.889Z,0.00
2019-01-21T02:38:28.099Z,0.00
2019-01-21T02:39:28.118Z,0.00
2019-01-21T02:40:28.215Z,0.00
2019-01-21T02:41:28.536Z,0.00
2019-01-21T02:42:29.151Z,0.00
2019-01-21T02:43:29.463Z,0.00
2019-01-21T02:44:29.477Z,0.00
2019-01-21T02:45:29.381Z,0.00
2019-01-21T02:46:29.988Z,0.00
2019-01-21T02:47:29.972Z,0.00
2019-01-21T02:48:30.826Z,0.00
2019-01-21T02:49:30.814Z,0.00
2019-01-21T02:50:30.830Z,0.00
2019-01-21T02:51:31.040Z,0.00
2019-01-21T02:52:31.302Z,0.00
2019-01-21T02:53:31.344Z,0.00
2019-01-21T02:54:31.382Z,0.00
2019-01-21T02:55:31.755Z,0.00
2019-01-21T02:56:32.140Z,0.00
2019-01-21T02:57:32.748Z,0.00
2019-01-21T02:58:32.804Z,0.00
2019-01-21T02:59:33.358Z,0.00
2019-01-21T03:00:33.613Z,0.00
2019-01-21T03:01:33.737Z,0.00
2019-01-21T03:02:33.927Z,0.00
2019-01-21T03:03:34.439Z,0.00
2019-01-21T03:04:34.366Z,0.00
2019-01-21T03:05:34.687Z,0.00
2019-01-21T03:06:34.876Z,0.00
2019-01-21T03:07:35.080Z,0.00
2019-01-21T03:08:35.581Z,0.00
2019-01-21T03:09:35.942Z,0.00
2019-01-21T03:10:37.320Z,0.00
2019-01-21T03:11:36.466Z,0.00
2019-01-21T03:12:36.755Z,0.00
2019-01-21T03:13:37.068Z,0.00
2019-01-21T03:14:37.440Z,0.00
2019-01-21T03:15:37.847Z,0.00
2019-01-21T03:16:38.007Z,0.00
2019-01-21T03:17:38.118Z,0.00
2019-01-21T03:18:38.495Z,0.00
2019-01-21T03:19:38.793Z,0.00
2019-01-21T03:20:38.842Z,0.00
2019-01-21T03:21:39.219Z,0.00
2019-01-21T03:22:39.727Z,0.00
2019-01-21T03:23:39.909Z,0.00
2019-01-21T03:24:39.998Z,0.00
2019-01-21T03:25:40.815Z,0.00
2019-01-21T03:26:41.727Z,0.00
2019-01-21T03:27:41.446Z,0.00
2019-01-21T03:28:41.637Z,0.00
2019-01-21T03:29:41.955Z,0.00
2019-01-21T03:30:42.063Z,0.00
2019-01-21T03:31:42.382Z,0.00
2019-01-21T03:32:42.709Z,0.00
2019-01-21T03:33:42.694Z,0.00
2019-01-21T03:34:43.026Z,0.00
2019-01-21T03:35:43.227Z,0.00
2019-01-21T03:36:43.338Z,0.00
2019-01-21T03:37:43.788Z,0.00
2019-01-21T03:38:43.649Z,0.00
2019-01-21T03:39:43.964Z,0.00
2019-01-21T03:40:43.965Z,0.00
2019-01-21T03:41:44.456Z,0.00
2019-01-21T03:42:44.588Z,0.00
2019-01-21T03:43:44.702Z,0.00
2019-01-21T03:44:45.221Z,0.00
2019-01-21T03:45:45.612Z,0.00
2019-01-21T03:46:45.660Z,0.00
2019-01-21T03:47:45.806Z,0.00
2019-01-21T03:48:46.117Z,0.00
2019-01-21T03:49:46.356Z,0.00
2019-01-21T03:50:46.876Z,0.00
2019-01-21T03:51:46.594Z,0.00
2019-01-21T03:52:46.806Z,0.00
2019-01-21T03:53:47.275Z,0.00
2019-01-21T03:54:47.442Z,0.00
2019-01-21T03:55:47.689Z,0.00
2019-01-21T03:56:48.169Z,0.00
2019-01-21T03:57:48.426Z,0.00
2019-01-21T03:58:48.835Z,0.00
2019-01-21T03:59:49.286Z,0.00
2019-01-21T04:00:49.593Z,0.00
2019-01-21T04:01:50.262Z,0.00
2019-01-21T04:02:49.877Z,0.00
2019-01-21T04:03:50.319Z,0.00
2019-01-21T04:04:50.580Z,0.00
2019-01-21T04:05:50.513Z,0.00
2019-01-21T04:06:50.636Z,0.00
2019-01-21T04:07:50.805Z,0.00
2019-01-21T04:08:51.259Z,0.00
2019-01-21T04:09:51.826Z,0.00
2019-01-21T04:10:51.904Z,0.00
2019-01-21T04:11:51.998Z,0.00
2019-01-21T04:12:52.312Z,0.00
2019-01-21T04:13:52.865Z,0.00
2019-01-21T04:14:53.046Z,0.00
2019-01-21T04:15:53.405Z,0.00
2019-01-21T04:16:53.554Z,0.00
2019-01-21T04:17:53.579Z,0.00
2019-01-21T04:18:54.051Z,0.00
2019-01-21T04:19:54.110Z,0.00
2019-01-21T04:20:54.218Z,0.00
2019-01-21T04:21:54.988Z,0.00
2019-01-21T04:22:54.632Z,0.00
2019-01-21T04:23:55.099Z,0.00
2019-01-21T04:24:56.242Z,0.00
2019-01-21T04:25:56.651Z,0.00
2019-01-21T04:26:57.172Z,0.00
2019-01-21T04:27:57.285Z,0.00
2019-01-21T04:28:57.802Z,0.00
2019-01-21T04:29:58.219Z,0.00
2019-01-21T04:30:58.017Z,0.00
2019-01-21T04:31:58.192Z,0.00
2019-01-21T04:32:58.201Z,0.00
2019-01-21T04:33:58.347Z,0.00
2019-01-21T04:34:58.250Z,0.00
2019-01-21T04:35:58.664Z,0.00
2019-01-21T04:36:58.468Z,0.00
2019-01-21T04:37:58.788Z,0.00
2019-01-21T04:38:59.089Z,0.00
2019-01-21T04:39:59.511Z,0.00
2019-01-21T04:40:59.517Z,0.00
2019-01-21T04:41:59.925Z,0.00
2019-01-21T04:43:00.545Z,0.00
2019-01-21T04:44:00.858Z,0.00
2019-01-21T04:45:01.169Z,0.00
2019-01-21T04:46:00.991Z,0.00
2019-01-21T04:47:01.916Z,0.00
2019-01-21T04:48:01.460Z,0.00
2019-01-21T04:49:01.926Z,0.00
2019-01-21T04:50:02.892Z,0.00
2019-01-21T04:51:02.638Z,0.00
2019-01-21T04:52:03.179Z,0.00
2019-01-21T04:53:03.045Z,0.00
2019-01-21T04:54:03.092Z,0.00
2019-01-21T04:55:03.706Z,0.00
2019-01-21T04:56:03.227Z,0.00
2019-01-21T04:57:03.821Z,0.00
2019-01-21T04:58:03.931Z,0.00
2019-01-21T04:59:03.828Z,0.00
2019-01-21T05:00:04.321Z,0.00
2019-01-21T05:01:04.188Z,0.00
2019-01-21T05:02:04.621Z,0.00
2019-01-21T05:03:04.669Z,0.00
2019-01-21T05:04:04.901Z,0.00
2019-01-21T05:05:04.976Z,0.00
2019-01-21T05:06:05.412Z,0.00
2019-01-21T05:07:06.025Z,0.00
2019-01-21T05:08:05.869Z,0.00
2019-01-21T05:09:06.026Z,0.00
2019-01-21T05:10:06.094Z,0.00
2019-01-21T05:11:06.661Z,0.00
2019-01-21T05:12:06.964Z,0.00
2019-01-21T05:13:06.946Z,0.00
2019-01-21T05:14:07.614Z,0.00
2019-01-21T05:15:08.007Z,0.00
2019-01-21T05:16:07.969Z,0.00
2019-01-21T05:17:08.313Z,0.00
2019-01-21T05:18:08.457Z,0.00
2019-01-21T05:19:08.987Z,0.00
2019-01-21T05:20:09.413Z,0.00
2019-01-21T05:21:09.027Z,0.00
2019-01-21T05:22:09.612Z,0.00
2019-01-21T05:23:09.916Z,0.00
2019-01-21T05:24:10.860Z,0.00
2019-01-21T05:25:11.578Z,0.00
2019-01-21T05:26:11.795Z,0.00
2019-01-21T05:27:12.206Z,0.00
2019-01-21T05:28:12.418Z,0.00
2019-01-21T05:29:12.873Z,0.00
2019-01-21T05:30:13.056Z,0.00
2019-01-21T05:31:13.115Z,0.00
2019-01-21T05:32:13.197Z,0.00
2019-01-21T05:33:13.241Z,0.00
2019-01-21T05:34:13.799Z,0.00
2019-01-21T05:35:14.100Z,0.00
2019-01-21T05:36:13.996Z,0.00
2019-01-21T05:37:14.411Z,0.00
2019-01-21T05:38:14.734Z,0.00
2019-01-21T05:39:14.852Z,0.00
2019-01-21T05:40:15.257Z,0.00
2019-01-21T05:41:15.314Z,0.00
2019-01-21T05:42:15.691Z,0.00
2019-01-21T05:43:16.698Z,0.00
2019-01-21T05:44:16.235Z,0.00
2019-01-21T05:45:16.830Z,0.00
2019-01-21T05:46:16.602Z,0.00
2019-01-21T05:47:16.610Z,0.00
2019-01-21T05:48:16.828Z,0.00
2019-01-21T05:49:17.161Z,0.00
2019-01-21T05:50:17.823Z,0.00
2019-01-21T05:51:17.619Z,0.00
2019-01-21T05:52:18.077Z,0.00
2019-01-21T05:53:18.270Z,0.00
2019-01-21T05:54:18.684Z,0.00
2019-01-21T05:55:19.549Z,0.00
2019-01-21T05:56:19.654Z,0.00
2019-01-21T05:57:19.809Z,0.00
2019-01-21T05:58:20.266Z,0.00
2019-01-21T05:59:20.281Z,0.00
2019-01-21T06:00:20.645Z,0.00
2019-01-21T06:01:20.918Z,0.00
2019-01-21T06:02:26.659Z,0.00
2019-01-21T06:03:21.798Z,0.00
2019-01-21T06:04:21.891Z,0.00
2019-01-21T06:05:22.398Z,0.00
2019-01-21T06:06:22.710Z,0.00
2019-01-21T06:07:23.123Z,0.00
2019-01-21T06:08:23.442Z,0.00
2019-01-21T06:09:23.395Z,0.00
2019-01-21T06:10:24.746Z,0.00
2019-01-21T06:11:23.663Z,0.00
2019-01-21T06:12:23.765Z,0.00
2019-01-21T06:13:23.975Z,0.00
2019-01-21T06:14:24.178Z,0.00
2019-01-21T06:15:24.624Z,0.00
2019-01-21T06:16:25.333Z,0.00
2019-01-21T06:18:25.859Z,0.00
2019-01-21T06:19:26.377Z,0.00
2019-01-21T06:20:26.406Z,0.00
2019-01-21T06:21:26.815Z,0.00
2019-01-21T06:22:26.920Z,0.00
2019-01-21T06:23:26.917Z,0.00
2019-01-21T06:24:27.537Z,0.00
2019-01-21T06:25:27.648Z,0.00
2019-01-21T06:26:27.860Z,0.00
2019-01-21T06:27:27.975Z,0.00
2019-01-21T06:28:28.137Z,0.00
2019-01-21T06:29:28.225Z,0.00
2019-01-21T06:30:28.599Z,0.00
2019-01-21T06:31:28.502Z,1.00
2019-01-21T06:32:28.941Z,1.00
2019-01-21T06:33:29.211Z,1.00
2019-01-21T06:34:29.341Z,0.00
2019-01-21T06:35:29.601Z,1.00
2019-01-21T06:36:29.656Z,2.00
2019-01-21T06:37:29.744Z,1.00
2019-01-21T06:38:30.301Z,2.00
2019-01-21T06:39:30.399Z,3.00
2019-01-21T06:40:30.933Z,3.00
2019-01-21T06:41:30.917Z,4.00
2019-01-21T06:42:31.034Z,4.00
2019-01-21T06:43:30.980Z,5.00
2019-01-21T06:44:31.026Z,5.00
2019-01-21T06:45:31.315Z,7.00
2019-01-21T06:46:31.778Z,7.00
2019-01-21T06:47:31.919Z,9.00
2019-01-21T06:48:32.423Z,10.00
2019-01-21T06:49:32.911Z,13.00
2019-01-21T06:50:33.081Z,14.00
2019-01-21T06:51:33.754Z,17.00
2019-01-21T06:52:34.018Z,21.00
2019-01-21T06:53:34.480Z,25.00
2019-01-21T06:54:34.550Z,29.00
2019-01-21T06:55:34.753Z,33.00
2019-01-21T06:56:35.117Z,38.00
2019-01-21T06:57:35.465Z,46.00
2019-01-21T06:58:35.604Z,53.00
2019-01-21T07:00:35.953Z,71.00
2019-01-21T07:01:35.818Z,81.00
2019-01-21T07:02:36.230Z,92.00
2019-01-21T07:03:36.701Z,105.00
2019-01-21T07:04:36.921Z,119.00
2019-01-21T07:05:37.184Z,134.00
2019-01-21T07:07:37.439Z,167.00
2019-01-21T07:08:38.165Z,186.00
2019-01-21T07:09:38.315Z,206.00
2019-01-21T07:10:38.992Z,227.00
2019-01-21T07:11:39.064Z,249.00
2019-01-21T07:12:39.024Z,272.00
2019-01-21T07:13:39.173Z,296.00
2019-01-21T07:14:39.360Z,322.00
2019-01-21T07:15:39.645Z,346.00
2019-01-21T07:16:40.273Z,373.00
2019-01-21T07:17:41.408Z,401.00
2019-01-21T07:18:41.923Z,429.00
2019-01-21T07:19:42.129Z,457.00
2019-01-21T07:20:42.048Z,487.00
2019-01-21T07:21:42.550Z,517.00
2019-01-21T07:22:42.772Z,550.00
2019-01-21T07:23:43.185Z,582.00
2019-01-21T07:24:43.082Z,616.00
2019-01-21T07:25:43.294Z,651.00
2019-01-21T07:26:43.403Z,688.00
2019-01-21T07:27:43.426Z,720.00
2019-01-21T07:28:43.724Z,759.00
2019-01-21T07:29:43.481Z,800.00
2019-01-21T07:30:43.940Z,840.00
2019-01-21T07:31:44.459Z,884.00
2019-01-21T07:32:44.467Z,927.00
2019-01-21T07:33:44.598Z,972.00
2019-01-21T07:34:44.723Z,1018.00
2019-01-21T07:35:44.905Z,1063.00
2019-01-21T07:36:45.006Z,1110.00
2019-01-21T07:37:45.327Z,1156.00
2019-01-21T07:38:45.515Z,1202.00
2019-01-21T07:39:45.641Z,1248.00
2019-01-21T07:40:45.863Z,1293.00
2019-01-21T07:41:45.938Z,1341.00
2019-01-21T07:42:46.275Z,1389.00
2019-01-21T07:43:46.594Z,1438.00
2019-01-21T07:44:46.689Z,1490.00
2019-01-21T07:45:46.702Z,1543.00
2019-01-21T07:46:47.323Z,1594.00
2019-01-21T07:47:47.234Z,1640.00
2019-01-21T07:48:47.274Z,1690.00
2019-01-21T07:49:47.579Z,1740.00
2019-01-21T07:50:47.949Z,1793.00
2019-01-21T07:51:47.815Z,1862.00
2019-01-21T07:52:48.032Z,1904.00
2019-01-21T07:53:48.276Z,1935.00
2019-01-21T07:54:48.139Z,2010.00
2019-01-21T07:55:48.410Z,2076.00
2019-01-21T07:56:48.825Z,2137.00
2019-01-21T07:57:48.781Z,2193.00
2019-01-21T07:58:48.985Z,2245.00
2019-01-21T07:59:49.015Z,2298.00
2019-01-21T08:00:49.154Z,2355.00
2019-01-21T08:01:49.620Z,2407.00
2019-01-21T08:02:49.725Z,2457.00
2019-01-21T08:03:50.038Z,2514.00
2019-01-21T08:04:50.159Z,2577.00
2019-01-21T08:05:50.217Z,2638.00
2019-01-21T08:06:50.527Z,2701.00
2019-01-21T08:07:50.624Z,2763.00
2019-01-21T08:08:51.257Z,2814.00
2019-01-21T08:09:51.226Z,2869.00
2019-01-21T08:10:51.495Z,2929.00
2019-01-21T08:11:52.791Z,2994.00
2019-01-21T08:12:51.944Z,3059.00
2019-01-21T08:13:52.401Z,3124.00
2019-01-21T08:14:52.273Z,3196.00
2019-01-21T08:15:52.947Z,3271.00
2019-01-21T08:16:53.137Z,3367.00
2019-01-21T08:17:53.228Z,3460.00
2019-01-21T08:18:53.928Z,3542.00
2019-01-21T08:19:53.778Z,3623.00
2019-01-21T08:20:54.086Z,3700.00
2019-01-21T08:21:53.991Z,3772.00
2019-01-21T08:22:54.163Z,3840.00
2019-01-21T08:23:54.503Z,3907.00
2019-01-21T08:24:54.763Z,3977.00
2019-01-21T08:25:54.905Z,4030.00
2019-01-21T08:26:55.676Z,4110.00
2019-01-21T08:27:56.808Z,4168.00
2019-01-21T08:28:57.230Z,4203.00
2019-01-21T08:29:57.333Z,4255.00
2019-01-21T08:30:57.539Z,4305.00
2019-01-21T08:31:57.853Z,4360.00
2019-01-21T08:32:58.168Z,4437.00
2019-01-21T08:33:58.292Z,4542.00
2019-01-21T08:34:58.591Z,4663.00
2019-01-21T08:35:58.703Z,4792.00
2019-01-21T08:36:59.132Z,4893.00
2019-01-21T08:37:59.182Z,4954.00
2019-01-21T08:38:59.544Z,5000.00
2019-01-21T08:39:59.551Z,5038.00
2019-01-21T08:40:59.962Z,5071.00
2019-01-21T08:42:00.280Z,5125.00
2019-01-21T08:43:00.776Z,5185.00
2019-01-21T08:44:01.027Z,5257.00
2019-01-21T08:46:01.112Z,5382.00
2019-01-21T08:47:01.650Z,5406.00
2019-01-21T08:48:01.456Z,5419.00
2019-01-21T08:49:01.904Z,5399.00
2019-01-21T08:50:02.587Z,5376.00
2019-01-21T08:51:02.310Z,5434.00
2019-01-21T08:52:03.040Z,5582.00
2019-01-21T08:53:02.912Z,5747.00
2019-01-21T08:54:02.916Z,5948.00
2019-01-21T08:55:03.545Z,6197.00
2019-01-21T08:56:03.343Z,7009.00
2019-01-21T08:57:04.541Z,9702.00
2019-01-21T08:58:02.887Z,65536.00
2019-01-21T08:59:03.294Z,65536.00
2019-01-21T09:00:03.987Z,65536.00
2019-01-21T09:01:04.794Z,65536.00
2019-01-21T09:02:04.616Z,65536.00
2019-01-21T09:03:04.837Z,65536.00
2019-01-21T09:04:04.813Z,65536.00
2019-01-21T09:05:05.125Z,65536.00
2019-01-21T09:06:05.282Z,65536.00
2019-01-21T09:07:05.854Z,65536.00
2019-01-21T09:08:05.917Z,65536.00
2019-01-21T09:09:06.367Z,65536.00
2019-01-21T09:10:06.609Z,65536.00
2019-01-21T09:11:06.917Z,65536.00
2019-01-21T09:12:07.333Z,65536.00
2019-01-21T09:13:07.491Z,65536.00
2019-01-21T09:14:07.608Z,65536.00
2019-01-21T09:15:08.296Z,65536.00
2019-01-21T09:16:08.599Z,9870.00
2019-01-21T09:17:08.811Z,9291.00
2019-01-21T09:18:09.057Z,9477.00
2019-01-21T09:19:09.326Z,8236.00
2019-01-21T09:20:10.809Z,7789.00
2019-01-21T09:21:09.805Z,7594.00
2019-01-21T09:22:10.922Z,7589.00
2019-01-21T09:23:11.503Z,8030.00
2019-01-21T09:24:11.817Z,8722.00
2019-01-21T09:25:12.031Z,9461.00
2019-01-21T09:26:12.240Z,9489.00
2019-01-21T09:27:12.759Z,9848.00
2019-01-21T09:28:13.082Z,9391.00
2019-01-21T09:29:13.145Z,9252.00
2019-01-21T09:30:13.383Z,9676.00
2019-01-21T09:31:13.400Z,9912.00
2019-01-21T09:32:13.815Z,9908.00
2019-01-21T09:33:13.933Z,9883.00
2019-01-21T09:34:14.021Z,9340.00
2019-01-21T09:35:14.152Z,9319.00
2019-01-21T09:36:14.557Z,9103.00
2019-01-21T09:37:14.760Z,8804.00
2019-01-21T09:38:15.185Z,8730.00
2019-01-21T09:39:14.835Z,9306.00
2019-01-21T09:40:15.411Z,9643.00
2019-01-21T09:41:15.618Z,9438.00
2019-01-21T09:42:16.131Z,9395.00
2019-01-21T09:43:15.705Z,10069.00
2019-01-21T09:44:16.134Z,10303.00
2019-01-21T09:45:16.457Z,10561.00
2019-01-21T09:46:16.351Z,11770.00
2019-01-21T09:47:16.524Z,12318.00
2019-01-21T09:48:16.741Z,11966.00
2019-01-21T09:49:16.948Z,11159.00
2019-01-21T09:50:17.613Z,11638.00
2019-01-21T09:51:18.046Z,65536.00
2019-01-21T09:53:17.978Z,65536.00
2019-01-21T09:54:18.363Z,65536.00
2019-01-21T09:55:19.286Z,65536.00
2019-01-21T09:56:19.096Z,11859.00
2019-01-21T09:57:19.496Z,10047.00
2019-01-21T09:58:19.513Z,9749.00
2019-01-21T09:59:19.980Z,9460.00
2019-01-21T10:00:20.551Z,9111.00
2019-01-21T10:01:20.923Z,9350.00
2019-01-21T10:02:21.585Z,9265.00
2019-01-21T10:03:21.423Z,11216.00
2019-01-21T10:04:21.759Z,65536.00
2019-01-21T10:05:23.164Z,65536.00
2019-01-21T10:06:22.440Z,65536.00
2019-01-21T10:07:22.390Z,65536.00
2019-01-21T10:08:22.475Z,10589.00
2019-01-21T10:09:22.553Z,10610.00
2019-01-21T10:10:22.619Z,65536.00
2019-01-21T10:11:22.734Z,65536.00
2019-01-21T10:12:22.727Z,65536.00
2019-01-21T10:13:22.946Z,9951.00
2019-01-21T10:14:23.012Z,9750.00
2019-01-21T10:15:23.470Z,9164.00
2019-01-21T10:16:23.990Z,11339.00
2019-01-21T10:17:24.627Z,11217.00
2019-01-21T10:18:24.774Z,9458.00
2019-01-21T10:19:24.930Z,11127.00
2019-01-21T10:20:26.010Z,65536.00
2019-01-21T10:21:26.021Z,9764.00
2019-01-21T10:22:26.222Z,9449.00
2019-01-21T10:23:27.146Z,9706.00
2019-01-21T10:24:27.162Z,10159.00
2019-01-21T10:25:27.372Z,65536.00
2019-01-21T10:26:27.587Z,65536.00
2019-01-21T10:27:27.789Z,65536.00
2019-01-21T10:28:27.800Z,65536.00
2019-01-21T10:29:28.146Z,65536.00
2019-01-21T10:30:28.222Z,10392.00
2019-01-21T10:31:28.771Z,9984.00
2019-01-21T10:32:28.655Z,9027.00
2019-01-21T10:33:28.853Z,8764.00
2019-01-21T10:34:29.090Z,9529.00
2019-01-21T10:35:29.347Z,9736.00
2019-01-21T10:36:29.603Z,9605.00
2019-01-21T10:37:29.903Z,11183.00
2019-01-21T10:38:29.501Z,10880.00
2019-01-21T10:39:29.815Z,9736.00
2019-01-21T10:40:29.710Z,9343.00
2019-01-21T10:41:29.829Z,10311.00
2019-01-21T10:42:30.352Z,10896.00
2019-01-21T10:43:30.729Z,9924.00
2019-01-21T10:44:31.188Z,10069.00
2019-01-21T10:45:31.041Z,10515.00
2019-01-21T10:46:31.489Z,10586.00
2019-01-21T10:47:31.710Z,65536.00
2019-01-21T10:48:31.638Z,65536.00
2019-01-21T10:49:32.122Z,9900.00
2019-01-21T10:50:32.651Z,9436.00
2019-01-21T10:51:33.067Z,9532.00
2019-01-21T10:52:32.632Z,8785.00
2019-01-21T10:53:32.978Z,7847.00
2019-01-21T10:54:32.860Z,7815.00
2019-01-21T10:55:33.049Z,7984.00
2019-01-21T10:56:33.613Z,8422.00
2019-01-21T10:57:33.708Z,9132.00
2019-01-21T10:58:33.774Z,9949.00
2019-01-21T10:59:34.187Z,65536.00
2019-01-21T11:00:34.352Z,9325.00
2019-01-21T11:01:34.669Z,9229.00
2019-01-21T11:02:34.836Z,65536.00
2019-01-21T11:03:34.977Z,65536.00
2019-01-21T11:04:35.311Z,9646.00
2019-01-21T11:05:35.159Z,9823.00
2019-01-21T11:06:35.422Z,65536.00
2019-01-21T11:07:35.370Z,65536.00
2019-01-21T11:08:35.476Z,65536.00
2019-01-21T11:09:36.042Z,65536.00
2019-01-21T11:10:36.097Z,65536.00
2019-01-21T11:11:36.124Z,9346.00
2019-01-21T11:12:36.425Z,65536.00
2019-01-21T11:13:36.435Z,65536.00
2019-01-21T11:14:36.554Z,9162.00
2019-01-21T11:16:36.984Z,9391.00
2019-01-21T11:17:37.651Z,65536.00
2019-01-21T11:18:38.044Z,65536.00
2019-01-21T11:19:37.848Z,65536.00
2019-01-21T11:20:38.001Z,65536.00
2019-01-21T11:21:37.932Z,8390.00
2019-01-21T11:22:38.603Z,8570.00
2019-01-21T11:23:38.844Z,8615.00
2019-01-21T11:24:38.967Z,8713.00
2019-01-21T11:25:39.091Z,8255.00
2019-01-21T11:26:39.580Z,8128.00
2019-01-21T11:27:39.504Z,8034.00
2019-01-21T11:28:40.421Z,7999.00
2019-01-21T11:29:40.692Z,7877.00
2019-01-21T11:30:41.208Z,7660.00
2019-01-21T11:31:41.009Z,7662.00
2019-01-21T11:32:41.652Z,65536.00
2019-01-21T11:33:41.641Z,8307.00
2019-01-21T11:34:42.159Z,8098.00
2019-01-21T11:35:42.272Z,7994.00
2019-01-21T11:36:42.681Z,8208.00
2019-01-21T11:37:42.996Z,8218.00
2019-01-21T11:38:43.008Z,7836.00
2019-01-21T11:39:43.168Z,7869.00
2019-01-21T11:40:43.834Z,7903.00
2019-01-21T11:41:43.641Z,7734.00
2019-01-21T11:42:43.641Z,7844.00
2019-01-21T11:43:43.964Z,7937.00
2019-01-21T11:44:43.760Z,7704.00
2019-01-21T11:45:44.168Z,7750.00
2019-01-21T11:46:44.076Z,7724.00
2019-01-21T11:47:44.597Z,7781.00
2019-01-21T11:48:44.816Z,7846.00
2019-01-21T11:49:44.814Z,7534.00
2019-01-21T11:50:45.011Z,7206.00
2019-01-21T11:51:45.040Z,7421.00
2019-01-21T11:52:45.573Z,7482.00
2019-01-21T11:53:45.908Z,7459.00
2019-01-21T11:54:45.867Z,7474.00
2019-01-21T11:55:46.056Z,7720.00
2019-01-21T11:56:46.055Z,7519.00
2019-01-21T11:57:46.127Z,7598.00
2019-01-21T11:58:46.176Z,7689.00
2019-01-21T11:59:46.211Z,7615.00
2019-01-21T12:00:46.761Z,7801.00
2019-01-21T12:01:47.141Z,8006.00
2019-01-21T12:02:46.915Z,7783.00
2019-01-21T12:03:46.990Z,7515.00
2019-01-21T12:04:47.365Z,7362.00
2019-01-21T12:05:50.389Z,7238.00
2019-01-21T12:06:47.528Z,7512.00
2019-01-21T12:07:47.634Z,7293.00
2019-01-21T12:08:47.746Z,7116.00
2019-01-21T12:09:48.426Z,7765.00
2019-01-21T12:10:48.739Z,7667.00
2019-01-21T12:11:48.868Z,7414.00
2019-01-21T12:12:49.120Z,7432.00
2019-01-21T12:13:49.182Z,7647.00
2019-01-21T12:14:49.723Z,7425.00
2019-01-21T12:15:49.844Z,7150.00
2019-01-21T12:16:50.242Z,7389.00
2019-01-21T12:17:50.832Z,7526.00
2019-01-21T12:18:51.061Z,7558.00
2019-01-21T12:19:51.105Z,7402.00
2019-01-21T12:20:51.206Z,7287.00
2019-01-21T12:21:51.366Z,7041.00
2019-01-21T12:22:51.669Z,6636.00
2019-01-21T12:23:51.843Z,6715.00
2019-01-21T12:24:51.887Z,6694.00
2019-01-21T12:25:52.366Z,6795.00
2019-01-21T12:26:52.543Z,6826.00
2019-01-21T12:27:52.951Z,6909.00
2019-01-21T12:28:53.144Z,6872.00
2019-01-21T12:29:53.892Z,6629.00
2019-01-21T12:30:53.819Z,6781.00
2019-01-21T12:31:53.834Z,6942.00
2019-01-21T12:32:54.310Z,6973.00
2019-01-21T12:33:54.355Z,6722.00
2019-01-21T12:34:54.742Z,6455.00
2019-01-21T12:35:54.779Z,6083.00
2019-01-21T12:36:55.673Z,6161.00
2019-01-21T12:37:56.293Z,6254.00
2019-01-21T12:38:57.118Z,6146.00
2019-01-21T12:39:57.432Z,5770.00
2019-01-21T12:40:57.861Z,5723.00
2019-01-21T12:41:58.157Z,6342.00
2019-01-21T12:42:58.259Z,6063.00
2019-01-21T12:43:58.473Z,5923.00
2019-01-21T12:44:58.695Z,6067.00
2019-01-21T12:45:59.004Z,5819.00
2019-01-21T12:46:59.009Z,5757.00
2019-01-21T12:47:58.934Z,5775.00
2019-01-21T12:48:59.528Z,5810.00
2019-01-21T12:49:59.564Z,5888.00
2019-01-21T12:50:59.656Z,5878.00
2019-01-21T12:51:59.749Z,5950.00